Time;durP1;ratioP1;P1;durP2;ratioP2;P2;SDS_P1;SDS_P2;PMS_P1;PMS_P2;Temp;Humidity;BMP_temperature;BMP_pressure;BME280_temperature;BME280_humidity;BME280_pressure;Samples;Min_cycle;Max_cycle;Signal;HPM_P1;HPM_P2
2023/07/24 00:01:31;;;;;;;;;9.25;8.00;;;;;28.33;38.97;100473.84;146622;587;46010;-69
2023/07/24 00:04:41;;;;;;;;;5.33;4.00;;;;;30.35;39.30;100818.25;146620;583;46014;-71
2023/07/24 00:07:42;;;;;;;;;7.00;5.33;;;;;30.29;39.34;100815.75;146621;569;46010;-70
2023/07/24 00:11:02;;;;;;;;;12.00;8.67;;;;;28.45;38.78;100510.00;146618;667;46016;-68
2023/07/24 00:14:13;;;;;;;;;11.33;10.67;;;;;30.15;39.78;100826.81;146621;564;46020;-69
2023/07/24 00:17:07;;;;;;;;;9.33;7.33;;;;;30.09;40.09;100823.44;146621;583;46012;-70
2023/07/24 00:20:15;;;;;;;;;7.00;6.67;;;;;30.07;39.48;100815.47;146624;563;46010;-71
2023/07/24 00:23:10;;;;;;;;;8.00;6.50;;;;;30.11;40.20;100822.47;146618;727;46016;-71
2023/07/24 00:26:14;;;;;;;;;9.00;7.00;;;;;30.16;40.37;100822.34;146620;572;47010;-70
2023/07/24 00:29:11;;;;;;;;;8.50;7.00;;;;;30.17;40.19;100820.56;146620;623;46017;-67
2023/07/24 00:32:08;;;;;;;;;8.00;7.00;;;;;30.15;39.93;100831.28;146616;629;47028;-67
2023/07/24 00:35:06;;;;;;;;;7.25;6.75;;;;;30.14;39.99;100821.50;146616;666;47012;-67
2023/07/24 00:38:10;;;;;;;;;9.33;8.00;;;;;30.12;40.50;100826.87;146623;565;45021;-70
2023/07/24 00:41:13;;;;;;;;;7.67;7.00;;;;;30.07;40.50;100828.84;146621;630;46014;-66
2023/07/24 00:44:17;;;;;;;;;;;;;;;;;;;;;
2023/07/24 00:47:12;;;;;;;;;7.00;6.33;;;;;29.78;41.08;100831.41;146620;590;46035;-66
2023/07/24 00:50:26;;;;;;;;;;;;;;;;;;;;;
2023/07/24 00:53:27;;;;;;;;;11.00;8.00;;;;;29.62;40.84;100838.94;146622;607;46017;-67
2023/07/24 00:56:32;;;;;;;;;6.67;5.67;;;;;29.51;40.85;100836.53;146623;563;46010;-67
2023/07/24 00:59:38;;;;;;;;;7.75;7.00;;;;;29.41;41.55;100835.03;146621;588;47013;-68
2023/07/24 01:02:38;;;;;;;;;7.67;6.67;;;;;29.39;41.35;100840.37;146620;602;46020;-67
2023/07/24 01:05:34;;;;;;;;;10.25;7.75;;;;;29.41;41.97;100841.22;146621;635;47012;-67
2023/07/24 01:08:25;;;;;;;;;9.50;6.50;;;;;29.40;42.56;100850.13;146623;564;46020;-67
2023/07/24 01:11:30;;;;;;;;;11.67;9.00;;;;;29.36;43.38;100851.13;146620;625;46016;-67
2023/07/24 01:15:00;;;;;;;;;11.25;8.25;;;;;29.41;44.31;100853.72;146621;613;46021;-68
2023/07/24 01:18:36;;;;;;;;;;;;;;;;;;;;;
2023/07/24 01:21:53;;;;;;;;;9.50;7.75;;;;;29.53;46.75;100855.19;146624;647;46011;-70
2023/07/24 01:25:22;;;;;;;;;8.00;7.00;;;;;29.54;44.49;100857.84;146619;591;46016;-67
2023/07/24 01:28:17;;;;;;;;;9.50;8.75;;;;;29.56;46.15;100869.34;146621;721;46021;-68
2023/07/24 01:31:14;;;;;;;;;11.00;9.67;;;;;29.56;46.74;100873.81;146615;586;47915;-68
2023/07/24 01:34:10;;;;;;;;;9.00;8.00;;;;;29.55;46.97;100869.41;146621;664;46020;-67
2023/07/24 01:37:16;;;;;;;;;7.67;6.67;;;;;29.60;46.37;100868.38;146623;648;45017;-66
2023/07/24 01:40:20;;;;;;;;;11.25;9.25;;;;;29.75;46.55;100876.91;146623;628;46014;-67
2023/07/24 01:43:37;;;;;;;;;12.00;9.33;;;;;29.86;44.88;100872.19;146618;595;47013;-68
2023/07/24 01:46:32;;;;;;;;;8.00;7.67;;;;;29.91;49.35;100870.28;146627;588;45031;-68
2023/07/24 01:49:43;;;;;;;;;;;;;;;;;;;;;
2023/07/24 01:52:38;;;;;;;;;11.50;10.25;;;;;30.09;49.03;100879.59;146624;618;46020;-68
2023/07/24 01:55:56;;;;;;;;;7.33;7.00;;;;;28.25;46.46;100556.66;146621;595;46016;-68
2023/07/24 01:58:57;;;;;;;;;6.25;6.25;;;;;30.13;50.29;100881.28;146625;575;45031;-69
2023/07/24 02:01:56;;;;;;;;;10.25;10.25;;;;;30.03;51.50;100888.69;146618;580;47014;-68
2023/07/24 02:05:03;;;;;;;;;8.75;7.75;;;;;29.93;50.44;100889.81;146617;565;47015;-70
2023/07/24 02:08:04;;;;;;;;;10.75;9.25;;;;;29.89;50.72;100890.81;146618;610;46016;-66
2023/07/24 02:11:06;;;;;;;;;10.25;9.25;;;;;29.88;48.95;100879.25;146622;595;46020;-66
2023/07/24 02:14:20;;;;;;;;;7.67;7.33;;;;;29.89;51.09;100885.47;146620;570;46013;-67
2023/07/24 02:17:38;;;;;;;;;9.00;8.00;;;;;29.79;50.38;100887.50;146623;570;46010;-67
2023/07/24 02:20:31;;;;;;;;;7.00;6.67;;;;;29.66;50.85;100881.59;146620;584;46026;-69
2023/07/24 02:23:31;;;;;;;;;9.00;8.00;;;;;29.57;49.87;100880.94;146619;604;46020;-68
2023/07/24 02:26:45;;;;;;;;;;;;;;;;;;;;;
2023/07/24 02:29:51;;;;;;;;;;;;;;;;;;;;;
2023/07/24 02:32:56;;;;;;;;;12.00;8.00;;;;;29.54;47.40;100881.00;146617;671;46016;-68
2023/07/24 02:36:04;;;;;;;;;6.75;6.75;;;;;29.62;47.07;100887.06;146622;576;45034;-69
2023/07/24 02:39:06;;;;;;;;;10.67;8.00;;;;;29.73;47.70;100894.81;146620;609;46012;-68
2023/07/24 02:42:17;;;;;;;;;7.00;7.00;;;;;29.89;46.71;100901.50;146622;629;46021;-68
2023/07/24 02:45:19;;;;;;;;;6.00;6.00;;;;;29.99;45.74;100896.81;146618;577;47028;-70
2023/07/24 02:48:20;;;;;;;;;10.00;8.33;;;;;30.01;45.15;100894.97;146625;601;45023;-70
2023/07/24 02:51:24;;;;;;;;;5.33;5.00;;;;;29.94;45.20;100888.91;146620;687;46012;-67
2023/07/24 02:54:26;;;;;;;;;11.33;8.67;;;;;29.88;45.94;100895.28;146625;614;46010;-67
2023/07/24 02:57:21;;;;;;;;;6.33;5.00;;;;;29.75;45.00;100892.97;146619;580;46013;-65
2023/07/24 03:00:35;;;;;;;;;5.33;5.33;;;;;29.60;44.43;100881.72;146624;576;46023;-66
2023/07/24 03:03:45;;;;;;;;;10.33;8.00;;;;;29.46;44.95;100887.38;146621;582;47012;-66
2023/07/24 03:06:45;;;;;;;;;7.33;6.00;;;;;29.37;44.80;100881.41;146624;614;45029;-68
2023/07/24 03:09:52;;;;;;;;;8.67;7.67;;;;;29.32;44.22;100886.88;146621;593;45016;-68
2023/07/24 03:13:07;;;;;;;;;6.33;6.33;;;;;29.31;44.83;100893.09;146624;577;45023;-67
2023/07/24 03:16:20;;;;;;;;;7.00;7.00;;;;;27.44;44.64;100563.78;146619;582;46012;-66
2023/07/24 03:19:36;;;;;;;;;9.67;8.00;;;;;29.40;46.52;100892.88;146624;616;46020;-67
2023/07/24 03:22:29;;;;;;;;;7.67;7.33;;;;;29.45;46.12;100901.66;146618;583;46016;-68
2023/07/24 03:25:31;;;;;;;;;12.33;9.33;;;;;29.45;44.96;100890.13;146625;566;46010;-68
2023/07/24 03:28:40;;;;;;;;;6.67;6.67;;;;;29.40;45.15;100887.53;146621;575;46916;-64
2023/07/24 03:31:38;;;;;;;;;9.00;8.33;;;;;29.34;45.47;100894.81;146624;571;45020;-65
2023/07/24 03:34:40;;;;;;;;;;;;;;;;;;;;;
2023/07/24 03:37:35;;;;;;;;;10.00;9.00;;;;;29.10;47.00;100901.63;146622;634;46010;-65
2023/07/24 03:40:47;;;;;;;;;8.00;6.00;;;;;29.05;46.26;100896.38;146621;569;46016;-65
2023/07/24 03:43:42;;;;;;;;;9.25;8.50;;;;;28.19;47.68;100754.09;146624;586;46010;-70
2023/07/24 03:46:41;;;;;;;;;8.00;7.75;;;;;29.03;47.04;100898.19;146618;577;46916;-67
2023/07/24 03:49:42;;;;;;;;;11.00;8.67;;;;;29.03;48.33;100900.00;146623;623;46021;-67
2023/07/24 03:52:41;;;;;;;;;10.33;8.67;;;;;29.03;49.17;100902.66;146616;569;47012;-66
2023/07/24 03:55:40;;;;;;;;;8.75;8.00;;;;;29.08;49.41;100908.78;146622;692;46020;-68
2023/07/24 03:58:54;;;;;;;;;8.00;7.00;;;;;29.14;47.49;100908.66;146621;581;46016;-67
2023/07/24 04:01:59;;;;;;;;;10.00;8.75;;;;;29.20;48.98;100904.03;146626;601;46010;-66
2023/07/24 04:05:01;;;;;;;;;10.00;9.25;;;;;29.31;49.11;100908.25;146617;565;46013;-67
2023/07/24 04:07:56;;;;;;;;;7.00;6.00;;;;;29.36;48.10;100901.87;146622;579;47010;-66
2023/07/24 04:10:48;;;;;;;;;9.25;6.00;;;;;29.37;47.61;100906.31;146620;662;46012;-66
2023/07/24 04:13:44;;;;;;;;;9.67;7.00;;;;;29.46;47.68;100908.75;146624;686;46014;-67
2023/07/24 04:16:44;;;;;;;;;10.33;9.33;;;;;29.48;46.75;100905.19;146619;577;46016;-67
2023/07/24 04:19:43;;;;;;;;;9.33;8.00;;;;;29.58;47.20;100912.94;146621;569;46021;-67
2023/07/24 04:22:34;;;;;;;;;9.67;8.67;;;;;29.68;47.47;100916.28;146621;652;46014;-66
2023/07/24 04:25:36;;;;;;;;;9.67;8.67;;;;;29.81;46.35;100919.53;146623;570;46014;-67
2023/07/24 04:28:28;;;;;;;;;8.67;8.67;;;;;29.93;45.93;100922.75;146619;698;47012;-67
2023/07/24 04:31:38;;;;;;;;;11.00;9.00;;;;;30.02;45.49;100929.69;146621;604;46020;-67
2023/07/24 04:34:55;;;;;;;;;15.00;10.25;;;;;30.09;45.64;100935.75;146617;564;46017;-67
2023/07/24 04:38:10;;;;;;;;;11.00;11.00;;;;;30.22;45.39;100939.00;146620;605;46915;-66
2023/07/24 04:41:06;;;;;;;;;8.33;7.67;;;;;30.34;45.68;100955.63;146621;589;46016;-68
2023/07/24 04:44:18;;;;;;;;;10.00;7.33;;;;;30.49;44.80;100945.41;146626;638;46010;-69
2023/07/24 04:47:23;;;;;;;;;10.00;8.00;;;;;30.65;44.21;100957.44;146619;594;46012;-68
2023/07/24 04:50:30;;;;;;;;;10.33;7.33;;;;;30.81;45.29;100961.47;146626;634;46021;-68
2023/07/24 04:53:30;;;;;;;;;10.75;8.00;;;;;31.01;46.87;100960.00;146622;575;45035;-67
2023/07/24 04:56:28;;;;;;;;;8.33;8.33;;;;;31.18;44.80;100963.03;146627;569;46010;-68
2023/07/24 04:59:37;;;;;;;;;11.00;10.00;;;;;31.32;43.93;100964.44;146622;696;46016;-69
2023/07/24 05:02:38;;;;;;;;;12.00;9.50;;;;;31.36;44.23;100972.34;146619;595;47010;-68
2023/07/24 05:05:36;;;;;;;;;9.33;8.00;;;;;31.41;44.82;100966.88;146621;644;46012;-68
2023/07/24 05:08:16;;;;;;;;;11.50;9.00;;;;;31.53;46.17;100966.47;146708;566;46022;-66
2023/07/24 05:11:20;;;;;;;;;11.00;9.00;;;;;31.70;44.14;100953.38;146627;564;46012;-67
2023/07/24 05:14:15;;;;;;;;;10.00;8.67;;;;;31.94;44.76;100964.28;146631;679;46020;-67
2023/07/24 05:17:15;;;;;;;;;8.50;8.50;;;;;32.12;44.32;100963.66;146626;615;46017;-68
2023/07/24 05:20:29;;;;;;;;;8.67;7.67;;;;;32.28;43.27;100955.94;146634;578;45020;-69
2023/07/24 05:23:45;;;;;;;;;9.67;8.00;;;;;32.56;44.11;100968.41;146619;598;47012;-69
2023/07/24 05:26:39;;;;;;;;;9.00;8.75;;;;;32.80;44.12;100977.34;146632;655;46014;-65
2023/07/24 05:29:43;;;;;;;;;10.00;9.25;;;;;32.96;43.28;100969.59;146623;714;46916;-66
